Time;durP1;ratioP1;P1;durP2;ratioP2;P2;SDS_P1;SDS_P2;PMS_P1;PMS_P2;Temp;Humidity;BMP_temperature;BMP_pressure;BME280_temperature;BME280_humidity;BME280_pressure;Samples;Min_cycle;Max_cycle;Signal;HPM_P1;HPM_P2
2023/11/14 00:00:11;;;;;;;17.07;4.23;;;10.50;99.90;;;;;;4855584;29;20445;-80
2023/11/14 00:02:55;;;;;;;18.87;3.33;;;10.50;99.90;;;;;;4937139;23;20175;-82
2023/11/14 00:05:25;;;;;;;18.37;4.77;;;10.40;99.90;;;;;;4885601;29;20543;-81
2023/11/14 00:07:53;;;;;;;16.23;4.80;;;10.40;99.90;;;;;;4855045;29;20416;-78
2023/11/14 00:10:18;;;;;;;14.47;3.57;;;10.50;99.90;;;;;;4887084;29;20504;-78
2023/11/14 00:12:44;;;;;;;13.10;3.60;;;10.50;99.90;;;;;;4883671;29;20227;-78
2023/11/14 00:15:10;;;;;;;25.57;5.60;;;10.50;99.90;;;;;;4887642;29;20218;-77
2023/11/14 00:17:35;;;;;;;12.23;3.87;;;10.40;99.90;;;;;;4883835;29;20303;-77
2023/11/14 00:20:01;;;;;;;14.07;3.63;;;10.40;99.90;;;;;;4852161;29;20511;-77
2023/11/14 00:22:26;;;;;;;21.80;4.40;;;10.30;99.90;;;;;;4870142;29;20197;-77
2023/11/14 00:24:52;;;;;;;13.10;3.83;;;10.30;99.90;;;;;;4888908;29;20215;-78
2023/11/14 00:27:19;;;;;;;24.73;5.10;;;10.40;99.90;;;;;;4876184;29;20204;-75
2023/11/14 00:29:44;;;;;;;13.87;3.60;;;10.40;99.90;;;;;;4889587;29;20200;-78
2023/11/14 00:32:10;;;;;;;18.83;4.40;;;10.50;99.90;;;;;;4863413;29;20468;-78
2023/11/14 00:34:37;;;;;;;23.67;4.10;;;10.50;99.90;;;;;;4875008;29;20210;-78
2023/11/14 00:37:03;;;;;;;16.93;4.87;;;10.50;99.90;;;;;;4866751;29;20178;-78
2023/11/14 00:39:29;;;;;;;17.83;4.53;;;10.50;99.90;;;;;;4875160;29;20429;-76
2023/11/14 00:41:54;;;;;;;19.77;4.83;;;10.50;99.90;;;;;;4860011;29;20445;-77
2023/11/14 00:47:24;;;;;;;14.53;3.57;;;10.50;99.90;;;;;;4860330;29;20279;-76
2023/11/14 00:49:49;;;;;;;19.47;4.80;;;10.40;99.90;;;;;;4862357;29;20477;-78
2023/11/14 00:52:16;;;;;;;15.80;3.30;;;10.30;99.90;;;;;;4841513;29;20213;-77
2023/11/14 00:54:41;;;;;;;16.83;4.33;;;10.40;99.90;;;;;;4835400;29;20624;-77
2023/11/14 00:57:07;;;;;;;10.83;3.33;;;10.30;99.90;;;;;;4856751;29;20432;-77
2023/11/14 00:59:32;;;;;;;15.17;4.33;;;10.20;99.90;;;;;;4867655;29;20225;-77
2023/11/14 01:01:59;;;;;;;23.80;5.50;;;10.30;99.90;;;;;;4844419;29;20185;-77
2023/11/14 01:04:27;;;;;;;15.53;4.60;;;10.40;99.90;;;;;;4877232;29;20332;-76
2023/11/14 01:06:53;;;;;;;18.77;4.87;;;10.30;99.90;;;;;;4868767;29;20887;-78
2023/11/14 01:09:18;;;;;;;14.80;4.17;;;10.30;99.90;;;;;;4858734;29;20435;-76
2023/11/14 01:11:44;;;;;;;17.47;4.87;;;10.30;99.90;;;;;;4850705;29;20280;-76
2023/11/14 01:14:10;;;;;;;17.57;4.40;;;10.30;99.90;;;;;;4868777;29;20192;-77
2023/11/14 01:16:36;;;;;;;23.03;3.90;;;10.30;99.90;;;;;;4834935;29;20481;-76
2023/11/14 01:19:01;;;;;;;21.83;4.77;;;10.30;99.90;;;;;;4848982;29;20188;-77
2023/11/14 01:21:28;;;;;;;21.97;4.80;;;10.20;99.90;;;;;;4864042;29;20604;-77
2023/11/14 01:23:54;;;;;;;27.30;5.47;;;10.20;99.90;;;;;;4856944;29;20619;-77
2023/11/14 01:26:20;;;;;;;13.90;3.70;;;10.40;99.90;;;;;;4850999;29;20433;-77
2023/11/14 01:28:46;;;;;;;13.73;4.60;;;10.40;99.90;;;;;;4849333;29;20291;-77
2023/11/14 01:31:21;;;;;;;20.90;3.93;;;10.40;99.90;;;;;;4849281;29;20197;-77
2023/11/14 01:33:47;;;;;;;25.10;4.63;;;10.30;99.90;;;;;;4876041;29;20705;-77
2023/11/14 01:36:12;;;;;;;22.73;4.13;;;10.30;99.90;;;;;;4874404;29;20464;-77
2023/11/14 01:38:38;;;;;;;21.87;4.90;;;10.40;99.90;;;;;;4852632;29;20187;-77
2023/11/14 01:41:04;;;;;;;13.93;5.10;;;10.40;99.90;;;;;;4886565;29;20193;-76
2023/11/14 01:43:29;;;;;;;17.97;5.03;;;10.50;99.90;;;;;;4848469;29;20201;-77
2023/11/14 01:45:55;;;;;;;19.30;4.50;;;10.50;99.90;;;;;;4870564;29;20220;-76
2023/11/14 01:48:21;;;;;;;17.20;3.70;;;10.50;99.90;;;;;;4871211;29;20237;-77
2023/11/14 01:50:48;;;;;;;14.10;4.33;;;10.50;99.90;;;;;;4880727;29;20773;-76
2023/11/14 01:53:14;;;;;;;14.77;3.20;;;10.50;99.90;;;;;;4875011;29;20212;-77
2023/11/14 01:55:40;;;;;;;18.10;4.80;;;10.50;99.90;;;;;;4878645;29;20494;-78
2023/11/14 01:58:06;;;;;;;24.60;4.67;;;10.50;99.90;;;;;;4863907;29;20448;-76
2023/11/14 02:00:32;;;;;;;17.37;3.03;;;10.50;99.90;;;;;;4867455;29;20428;-76
2023/11/14 02:02:59;;;;;;;15.87;3.80;;;10.50;99.90;;;;;;4875741;29;20441;-76
2023/11/14 02:05:27;;;;;;;15.53;3.97;;;10.40;99.90;;;;;;4851972;29;20459;-76
2023/11/14 02:07:53;;;;;;;17.70;4.50;;;10.50;99.90;;;;;;4867228;29;20421;-76
2023/11/14 02:10:19;;;;;;;22.70;5.17;;;10.40;99.90;;;;;;4872398;29;20493;-77
2023/11/14 02:12:44;;;;;;;19.57;4.97;;;10.40;99.90;;;;;;4852776;29;20464;-77
2023/11/14 02:15:11;;;;;;;18.80;4.03;;;10.40;99.90;;;;;;4846989;29;20208;-76
2023/11/14 02:17:36;;;;;;;17.30;4.43;;;10.50;99.90;;;;;;4849507;29;20471;-77
2023/11/14 02:20:03;;;;;;;23.13;4.30;;;10.40;99.90;;;;;;4866467;29;20500;-76
2023/11/14 02:22:28;;;;;;;19.43;4.13;;;10.40;99.90;;;;;;4863757;29;20199;-76
2023/11/14 02:24:57;;;;;;;18.97;5.77;;;10.40;99.90;;;;;;4858905;29;20456;-77
2023/11/14 02:27:22;;;;;;;14.57;4.00;;;10.40;99.90;;;;;;4852242;29;20203;-77
2023/11/14 02:29:51;;;;;;;20.10;3.30;;;10.30;99.90;;;;;;4866177;29;20439;-77
2023/11/14 02:32:17;;;;;;;25.20;5.00;;;10.30;99.90;;;;;;4865040;29;20300;-77
2023/11/14 02:34:42;;;;;;;24.33;5.37;;;10.30;99.90;;;;;;4865694;29;20514;-77
2023/11/14 02:37:08;;;;;;;15.23;4.30;;;10.40;99.90;;;;;;4865134;29;20487;-76
2023/11/14 02:39:34;;;;;;;26.47;4.80;;;10.40;99.90;;;;;;4881181;29;20172;-77
2023/11/14 02:41:59;;;;;;;18.50;3.87;;;10.40;99.90;;;;;;4879093;29;20516;-77
2023/11/14 02:44:26;;;;;;;14.07;3.97;;;10.50;99.90;;;;;;4854097;29;20192;-77
2023/11/14 02:46:52;;;;;;;17.53;4.10;;;10.50;99.90;;;;;;4868226;29;20220;-76
2023/11/14 02:49:51;;;;;;;11.23;2.83;;;10.50;99.90;;;;;;4868116;29;20586;-76
2023/11/14 02:52:17;;;;;;;29.87;5.30;;;10.50;99.90;;;;;;4836939;29;20461;-76
2023/11/14 02:54:43;;;;;;;12.90;3.40;;;10.40;99.90;;;;;;4865295;29;20558;-76
2023/11/14 02:57:12;;;;;;;14.90;3.60;;;10.40;99.90;;;;;;4869836;29;20272;-76
2023/11/14 02:59:38;;;;;;;17.73;4.40;;;10.40;99.90;;;;;;4842630;29;20204;-77
2023/11/14 03:02:04;;;;;;;13.47;3.70;;;10.30;99.90;;;;;;4860780;29;20455;-77
2023/11/14 03:04:30;;;;;;;17.67;4.83;;;10.30;99.90;;;;;;4867504;29;20467;-77
2023/11/14 03:06:56;;;;;;;29.10;5.00;;;10.30;99.90;;;;;;4867519;29;20510;-78
2023/11/14 03:09:21;;;;;;;15.40;3.77;;;10.40;99.90;;;;;;4875279;29;20432;-76
2023/11/14 03:11:47;;;;;;;16.90;3.30;;;10.40;99.90;;;;;;4859131;29;20227;-77
2023/11/14 03:14:13;;;;;;;13.20;3.90;;;10.30;99.90;;;;;;4884584;29;20256;-76
2023/11/14 03:16:38;;;;;;;18.47;4.20;;;10.30;99.90;;;;;;4876759;29;20199;-78
2023/11/14 03:19:04;;;;;;;13.60;3.80;;;10.30;99.90;;;;;;4879763;29;20271;-77
2023/11/14 03:21:29;;;;;;;18.37;3.67;;;10.40;99.90;;;;;;4883579;29;20188;-77
2023/11/14 03:23:55;;;;;;;18.93;4.57;;;10.30;99.90;;;;;;4872850;29;20204;-77
2023/11/14 03:26:39;;;;;;;20.40;4.60;;;10.30;99.90;;;;;;4860012;29;20220;-76
2023/11/14 03:29:05;;;;;;;23.43;4.30;;;10.30;99.90;;;;;;4879766;29;20454;-77
2023/11/14 03:31:31;;;;;;;22.37;5.47;;;10.30;99.90;;;;;;4874167;29;20410;-78
2023/11/14 03:33:56;;;;;;;19.30;4.27;;;10.20;99.90;;;;;;4879918;29;20442;-77
2023/11/14 03:36:22;;;;;;;14.33;3.50;;;10.20;99.90;;;;;;4883747;29;20220;-76
2023/11/14 03:38:48;;;;;;;20.07;4.07;;;10.30;99.90;;;;;;4870616;29;20185;-76
2023/11/14 03:41:14;;;;;;;18.00;4.10;;;10.20;99.90;;;;;;4881690;29;20472;-76
2023/11/14 03:43:42;;;;;;;15.63;5.00;;;10.40;99.90;;;;;;4878922;29;20437;-76
2023/11/14 03:46:07;;;;;;;17.00;4.40;;;10.40;99.90;;;;;;4880071;29;20569;-76
2023/11/14 03:48:33;;;;;;;21.03;3.77;;;10.40;99.90;;;;;;4851189;29;20236;-77
2023/11/14 03:50:58;;;;;;;14.67;4.10;;;10.40;99.90;;;;;;4864063;29;20188;-77
2023/11/14 03:53:25;;;;;;;23.70;5.03;;;10.50;99.90;;;;;;4856570;29;20232;-76
2023/11/14 03:55:51;;;;;;;18.67;4.27;;;10.50;99.90;;;;;;4867201;29;20509;-78
2023/11/14 03:58:17;;;;;;;20.37;4.27;;;10.50;99.90;;;;;;4871388;29;20198;-75
2023/11/14 04:00:43;;;;;;;19.90;4.03;;;10.50;99.90;;;;;;4867337;29;20210;-76
2023/11/14 04:03:09;;;;;;;15.40;3.57;;;10.50;99.90;;;;;;4866611;29;20861;-78
2023/11/14 04:05:34;;;;;;;36.00;5.20;;;10.50;99.90;;;;;;4852031;29;20572;-77
2023/11/14 04:08:00;;;;;;;16.93;4.33;;;10.40;99.90;;;;;;4859403;29;20204;-76
2023/11/14 04:10:27;;;;;;;15.40;4.20;;;10.40;99.90;;;;;;4858976;29;20345;-76
2023/11/14 04:12:53;;;;;;;22.30;4.43;;;10.50;99.90;;;;;;4864033;29;20331;-76
2023/11/14 04:15:20;;;;;;;19.00;4.73;;;10.60;99.90;;;;;;4876326;29;20460;-76
2023/11/14 04:17:45;;;;;;;6.83;2.93;;;10.70;99.90;;;;;;4875460;29;20430;-76
2023/11/14 04:20:11;;;;;;;20.50;3.60;;;10.70;99.90;;;;;;4850404;29;20421;-77
2023/11/14 04:22:37;;;;;;;16.60;3.53;;;10.70;99.90;;;;;;4868847;29;20199;-78
2023/11/14 04:25:03;;;;;;;17.00;4.00;;;10.70;99.90;;;;;;4876132;29;20221;-78
2023/11/14 04:27:29;;;;;;;15.20;4.83;;;10.80;99.90;;;;;;4832196;29;20502;-76
2023/11/14 04:29:54;;;;;;;19.70;4.00;;;10.90;99.90;;;;;;4880108;29;20420;-77
2023/11/14 04:32:20;;;;;;;22.27;3.90;;;11.00;99.90;;;;;;4836898;29;20289;-77
2023/11/14 04:34:45;;;;;;;17.17;4.23;;;11.00;99.90;;;;;;4859828;29;20605;-77
2023/11/14 04:37:11;;;;;;;17.60;3.90;;;11.10;99.90;;;;;;4873863;29;20192;-76
2023/11/14 04:39:37;;;;;;;18.00;4.17;;;11.20;99.90;;;;;;4869216;29;20279;-77
2023/11/14 04:42:05;;;;;;;14.83;4.00;;;11.30;99.90;;;;;;4850018;29;20582;-77
2023/11/14 04:44:31;;;;;;;18.53;3.90;;;11.30;99.90;;;;;;4856370;29;20453;-77
2023/11/14 04:46:58;;;;;;;25.30;6.23;;;11.40;99.90;;;;;;4869317;29;20436;-77
2023/11/14 04:49:24;;;;;;;15.37;3.63;;;11.50;99.90;;;;;;4854661;29;20513;-78
2023/11/14 04:51:50;;;;;;;20.73;4.83;;;11.50;99.90;;;;;;4862713;29;21142;-78
2023/11/14 04:54:16;;;;;;;23.50;5.13;;;11.50;99.90;;;;;;4850199;29;20472;-76
2023/11/14 04:56:41;;;;;;;9.37;4.50;;;11.50;99.90;;;;;;4839600;29;20460;-77
2023/11/14 04:59:07;;;;;;;14.30;4.37;;;11.50;99.90;;;;;;4858722;29;20224;-79
2023/11/14 05:01:33;;;;;;;15.33;3.73;;;11.60;99.90;;;;;;4873805;29;20254;-77
2023/11/14 05:03:58;;;;;;;18.17;4.80;;;11.60;99.90;;;;;;4878964;29;20223;-77
2023/11/14 05:06:24;;;;;;;20.30;4.87;;;11.60;99.90;;;;;;4870765;29;20209;-76
2023/11/14 05:08:50;;;;;;;15.37;3.53;;;11.60;99.90;;;;;;4863109;29;20193;-77
2023/11/14 05:11:16;;;;;;;11.30;3.70;;;11.60;99.90;;;;;;4879283;29;20251;-77
2023/11/14 05:13:43;;;;;;;17.47;4.17;;;11.60;99.90;;;;;;4876766;29;20468;-76
2023/11/14 05:16:10;;;;;;;18.70;5.00;;;11.50;99.90;;;;;;4846807;29;20460;-76
2023/11/14 05:18:37;;;;;;;17.23;3.53;;;11.60;99.90;;;;;;4887445;29;20434;-78
2023/11/14 05:21:03;;;;;;;11.40;3.60;;;11.50;99.90;;;;;;4879495;29;20421;-77
2023/11/14 05:23:29;;;;;;;15.83;3.80;;;11.60;99.90;;;;;;4881220;29;20454;-77
2023/11/14 05:25:54;;;;;;;14.57;3.23;;;11.60;99.90;;;;;;4887480;29;20472;-77
2023/11/14 05:28:23;;;;;;;17.70;3.77;;;11.50;99.90;;;;;;4862180;29;20196;-78
2023/11/14 05:30:49;;;;;;;17.33;4.10;;;11.50;99.90;;;;;;4872151;29;20463;-77
2023/11/14 05:33:16;;;;;;;20.27;4.87;;;11.50;99.90;;;;;;4863393;29;20222;-76
2023/11/14 05:35:42;;;;;;;18.43;4.70;;;11.50;99.90;;;;;;4898214;29;20428;-77
2023/11/14 05:38:07;;;;;;;25.20;4.70;;;11.60;99.90;;;;;;4881832;29;20437;-78
2023/11/14 05:40:33;;;;;;;17.97;4.53;;;11.60;99.90;;;;;;4873437;29;20207;-76
2023/11/14 05:43:02;;;;;;;15.83;4.47;;;11.50;99.90;;;;;;4882325;29;20216;-79
2023/11/14 05:45:28;;;;;;;16.00;4.23;;;11.40;99.90;;;;;;4847160;29;20216;-77
2023/11/14 05:47:54;;;;;;;13.63;4.93;;;11.30;99.90;;;;;;4868156;29;20451;-77
2023/11/14 05:50:19;;;;;;;16.77;4.00;;;11.30;99.90;;;;;;4865418;29;20431;-78
2023/11/14 05:52:45;;;;;;;20.83;4.70;;;11.20;99.90;;;;;;4864552;29;20215;-77
2023/11/14 05:55:10;;;;;;;22.07;4.80;;;11.20;99.90;;;;;;4864654;29;20220;-77
2023/11/14 05:57:36;;;;;;;16.77;3.97;;;11.20;99.90;;;;;;4874070;29;20199;-78
2023/11/14 06:00:03;;;;;;;19.93;4.17;;;11.10;99.90;;;;;;4868957;29;20426;-78
2023/11/14 06:02:37;;;;;;;19.60;5.43;;;11.10;99.90;;;;;;4898875;29;20236;-78
2023/11/14 06:05:04;;;;;;;22.17;4.13;;;11.00;99.90;;;;;;4876836;29;20471;-78
2023/11/14 06:07:31;;;;;;;20.07;4.30;;;11.00;99.90;;;;;;4848984;29;20183;-78
2023/11/14 06:09:57;;;;;;;23.30;5.57;;;11.00;99.90;;;;;;4873504;29;20418;-78
2023/11/14 06:12:22;;;;;;;18.67;4.37;;;11.00;99.90;;;;;;4849331;29;20477;-79
2023/11/14 06:14:48;;;;;;;17.27;4.57;;;10.90;99.90;;;;;;4868370;29;20540;-78
2023/11/14 06:17:14;;;;;;;15.57;4.60;;;10.90;99.90;;;;;;4871321;29;20221;-78
2023/11/14 06:19:40;;;;;;;19.97;4.67;;;10.90;99.90;;;;;;4878142;29;20186;-80
2023/11/14 06:22:06;;;;;;;19.83;4.67;;;10.90;99.90;;;;;;4867069;29;20692;-79
2023/11/14 06:24:32;;;;;;;16.97;5.03;;;10.90;99.90;;;;;;4868504;29;20594;-79
2023/11/14 06:26:57;;;;;;;15.67;4.70;;;10.90;99.90;;;;;;4869990;29;20163;-79
2023/11/14 06:29:24;;;;;;;16.73;4.17;;;10.90;99.90;;;;;;4896704;29;20200;-80
2023/11/14 06:31:50;;;;;;;20.30;4.37;;;10.80;99.90;;;;;;4861218;29;20213;-81
2023/11/14 06:34:17;;;;;;;16.60;4.93;;;10.90;99.90;;;;;;4858984;29;20449;-83
2023/11/14 06:36:43;;;;;;;20.67;5.07;;;10.80;99.90;;;;;;4886582;29;20181;-80
2023/11/14 06:39:08;;;;;;;18.13;4.53;;;10.80;99.90;;;;;;4880546;29;20531;-79
2023/11/14 06:41:35;;;;;;;15.90;3.67;;;10.80;99.90;;;;;;4862036;29;20191;-83
2023/11/14 06:44:00;;;;;;;17.53;4.87;;;10.80;99.90;;;;;;4884296;29;20233;-82
2023/11/14 06:46:27;;;;;;;17.80;3.80;;;10.90;99.90;;;;;;4864203;29;20489;-78
2023/11/14 06:48:57;;;;;;;22.10;4.53;;;10.90;99.90;;;;;;4857777;29;20285;-83
2023/11/14 06:51:25;;;;;;;23.20;4.43;;;10.90;99.90;;;;;;4885401;29;20436;-81
2023/11/14 06:53:51;;;;;;;11.00;3.10;;;10.90;99.90;;;;;;4884208;29;20471;-80
2023/11/14 06:56:19;;;;;;;13.37;3.50;;;10.90;99.90;;;;;;4865505;29;20485;-79
2023/11/14 06:58:45;;;;;;;23.07;5.27;;;10.90;99.90;;;;;;4850417;29;20219;-78
2023/11/14 07:01:13;;;;;;;14.87;3.37;;;10.90;99.90;;;;;;4868482;29;20434;-81
2023/11/14 07:03:39;;;;;;;15.17;4.43;;;10.90;99.90;;;;;;4821105;29;20232;-79
2023/11/14 07:06:05;;;;;;;25.13;5.80;;;10.90;99.90;;;;;;4849987;29;20458;-79
2023/11/14 07:08:32;;;;;;;11.40;3.80;;;11.00;99.90;;;;;;4836887;29;20474;-81
2023/11/14 07:10:57;;;;;;;18.20;5.17;;;11.00;99.90;;;;;;4822375;29;20429;-79
2023/11/14 07:13:24;;;;;;;17.17;3.70;;;11.00;99.90;;;;;;4850412;29;20493;-78
2023/11/14 07:15:51;;;;;;;9.53;3.20;;;11.00;99.90;;;;;;4851881;29;20226;-80
2023/11/14 07:18:19;;;;;;;25.10;4.70;;;11.00;99.90;;;;;;4855166;29;20401;-77
2023/11/14 07:20:48;;;;;;;17.50;4.33;;;10.90;99.90;;;;;;4853766;29;20435;-79
2023/11/14 07:23:14;;;;;;;16.23;4.00;;;10.90;99.90;;;;;;4866839;29;20773;-80
2023/11/14 07:25:43;;;;;;;14.53;3.60;;;11.10;99.90;;;;;;4838427;29;20466;-80
2023/11/14 07:28:11;;;;;;;16.27;4.40;;;11.20;99.90;;;;;;4864293;29;20895;-80
2023/11/14 07:30:38;;;;;;;14.43;3.50;;;11.30;99.90;;;;;;4834996;29;20427;-80
2023/11/14 07:33:04;;;;;;;16.43;4.30;;;11.30;99.90;;;;;;4846706;29;20486;-81
2023/11/14 07:35:30;;;;;;;15.10;4.40;;;11.40;99.90;;;;;;4817116;29;20465;-80
2023/11/14 07:37:59;;;;;;;24.30;5.53;;;11.40;99.90;;;;;;4831036;29;20443;-81
2023/11/14 07:40:44;;;;;;;17.20;4.40;;;11.50;99.90;;;;;;4837532;29;20600;-80
2023/11/14 07:43:10;;;;;;;19.73;4.23;;;11.50;99.90;;;;;;4869868;29;20428;-83
2023/11/14 07:45:36;;;;;;;17.43;4.47;;;11.50;99.90;;;;;;4869844;29;20468;-80
2023/11/14 07:51:23;;;;;;;14.13;3.50;;;11.60;99.90;;;;;;3217847;27;20226;-80
2023/11/14 07:53:53;;;;;;;13.13;3.40;;;11.80;99.90;;;;;;4887128;29;20484;-83
2023/11/14 07:56:42;;;;;;;19.93;4.33;;;11.70;99.90;;;;;;4857936;29;20455;-80
2023/11/14 07:59:08;;;;;;;12.30;3.43;;;11.70;99.90;;;;;;4872598;29;20446;-79
2023/11/14 08:01:35;;;;;;;13.27;3.93;;;11.80;99.90;;;;;;4873981;29;20437;-82
2023/11/14 08:04:05;;;;;;;16.17;3.77;;;11.80;99.90;;;;;;4873116;29;20447;-80
2023/11/14 08:06:31;;;;;;;15.63;4.10;;;11.90;99.90;;;;;;4887118;29;20435;-79
2023/11/14 08:08:57;;;;;;;13.80;2.90;;;12.10;99.90;;;;;;4891024;29;20418;-79
2023/11/14 08:11:23;;;;;;;21.17;4.37;;;12.10;99.90;;;;;;4875743;29;20214;-80
2023/11/14 08:13:48;;;;;;;15.33;3.60;;;12.10;99.90;;;;;;4892024;29;20209;-81
2023/11/14 08:16:14;;;;;;;18.70;3.57;;;12.10;99.90;;;;;;4869079;29;20204;-79
2023/11/14 08:18:41;;;;;;;12.60;4.30;;;12.20;99.90;;;;;;4895254;29;20191;-80
2023/11/14 08:21:09;;;;;;;13.07;4.90;;;12.30;99.90;;;;;;4890830;29;20442;-78
2023/11/14 08:23:36;;;;;;;10.37;2.73;;;12.30;99.90;;;;;;4890435;29;20396;-81
2023/11/14 08:26:03;;;;;;;10.40;2.90;;;12.40;99.90;;;;;;4889509;29;20432;-81
2023/11/14 08:28:29;;;;;;;13.27;3.37;;;12.40;99.90;;;;;;4874603;29;20431;-78
2023/11/14 08:31:06;;;;;;;12.90;4.03;;;12.40;99.90;;;;;;4906644;29;20423;-80
2023/11/14 08:33:33;;;;;;;5.67;2.77;;;12.50;99.90;;;;;;4890640;29;20474;-80
2023/11/14 08:35:59;;;;;;;17.40;4.43;;;12.50;99.90;;;;;;4905675;29;20441;-81
2023/11/14 08:38:46;;;;;;;10.10;3.73;;;12.50;99.90;;;;;;4891327;29;20438;-80
2023/11/14 08:41:34;;;;;;;16.87;4.30;;;12.60;99.90;;;;;;4922704;29;20416;-80
2023/11/14 08:46:36;;;;;;;18.73;4.13;;;12.60;99.90;;;;;;5036854;23;20495;-80
2023/11/14 08:49:07;;;;;;;15.13;3.27;;;12.50;99.90;;;;;;4857673;29;20476;-79
2023/11/14 08:51:52;;;;;;;9.53;2.47;;;12.60;99.90;;;;;;4893253;29;20499;-79
2023/11/14 08:54:19;;;;;;;16.67;3.83;;;12.80;99.90;;;;;;4870950;29;20432;-79
2023/11/14 08:57:11;;;;;;;8.47;2.30;;;12.90;99.90;;;;;;4863856;29;20412;-83
2023/11/14 08:59:46;;;;;;;8.10;2.70;;;13.00;99.90;;;;;;4858229;29;20432;-80
2023/11/14 09:02:15;;;;;;;18.83;3.60;;;13.00;99.90;;;;;;4856056;29;20456;-80
2023/11/14 09:04:41;;;;;;;7.73;2.73;;;13.10;99.90;;;;;;4850831;29;20530;-80
2023/11/14 09:07:07;;;;;;;11.20;3.10;;;13.10;99.90;;;;;;4857854;29;20416;-80
2023/11/14 09:09:33;;;;;;;13.23;3.30;;;13.10;99.90;;;;;;4836643;29;20420;-80
2023/11/14 09:12:00;;;;;;;18.57;3.90;;;13.00;99.90;;;;;;4876420;29;20480;-79
2023/11/14 09:14:26;;;;;;;7.07;3.87;;;13.10;99.90;;;;;;4871174;29;20451;-80
2023/11/14 09:16:58;;;;;;;15.10;4.30;;;13.20;99.90;;;;;;4868616;29;20184;-80
2023/11/14 09:19:31;;;;;;;14.37;4.60;;;13.20;99.90;;;;;;4869403;29;20403;-78
2023/11/14 09:22:00;;;;;;;8.60;3.20;;;13.30;99.90;;;;;;4881745;29;20432;-79
2023/11/14 09:27:01;;;;;;;10.47;3.63;;;13.30;99.90;;;;;;4931717;23;20491;-80
2023/11/14 09:29:27;;;;;;;20.03;5.17;;;13.40;99.90;;;;;;4855683;29;20432;-80
2023/11/14 09:31:54;;;;;;;13.37;4.33;;;13.50;99.90;;;;;;4871577;29;20472;-79
2023/11/14 09:34:21;;;;;;;14.50;3.40;;;13.40;99.90;;;;;;4853700;29;20215;-80
2023/11/14 09:36:47;;;;;;;17.77;3.60;;;13.50;99.90;;;;;;4871643;29;20469;-80
2023/11/14 09:39:14;;;;;;;8.80;3.23;;;13.50;99.90;;;;;;4882990;29;20426;-80
2023/11/14 09:41:43;;;;;;;14.60;3.67;;;13.40;99.90;;;;;;4884062;29;20172;-79
2023/11/14 09:44:12;;;;;;;9.50;3.10;;;13.50;99.90;;;;;;4884290;29;20452;-81
2023/11/14 09:46:41;;;;;;;9.97;3.10;;;13.40;99.90;;;;;;4868467;29;20430;-81
2023/11/14 09:51:35;;;;;;;9.20;3.30;;;13.60;99.90;;;;;;4886637;29;20448;-80
2023/11/14 09:54:03;;;;;;;14.60;3.87;;;13.60;99.90;;;;;;4875392;29;20448;-82
2023/11/14 09:59:23;;;;;;;11.13;2.87;;;13.60;99.90;;;;;;5059985;24;20492;-80
2023/11/14 10:01:49;;;;;;;7.37;2.63;;;13.80;99.90;;;;;;4901964;29;20420;-79
2023/11/14 10:04:20;;;;;;;7.77;3.30;;;13.80;99.90;;;;;;4887869;29;20426;-81
2023/11/14 10:06:51;;;;;;;13.13;3.17;;;13.80;99.90;;;;;;4894533;29;20428;-81
2023/11/14 10:09:39;;;;;;;15.13;3.47;;;13.90;99.90;;;;;;4950354;23;20480;-81
2023/11/14 10:15:32;;;;;;;11.77;3.23;;;13.90;99.90;;;;;;4026446;27;20551;-82
2023/11/14 10:18:02;;;;;;;11.53;3.60;;;13.80;99.90;;;;;;4857342;29;20493;-80
2023/11/14 10:20:37;;;;;;;8.33;3.17;;;13.80;99.90;;;;;;4857271;29;20429;-81
2023/11/14 10:23:07;;;;;;;18.20;3.50;;;13.90;99.90;;;;;;4857295;29;20428;-82
2023/11/14 10:25:37;;;;;;;10.50;2.80;;;13.90;99.90;;;;;;4888556;29;20490;-80
2023/11/14 10:28:07;;;;;;;11.60;2.77;;;13.90;99.90;;;;;;4833932;29;20530;-80
2023/11/14 10:30:41;;;;;;;7.27;2.60;;;14.00;99.90;;;;;;4848095;29;20443;-80
2023/11/14 10:33:11;;;;;;;8.20;1.60;;;14.00;99.90;;;;;;4831796;29;20473;-82
2023/11/14 10:35:37;;;;;;;8.90;2.67;;;14.00;99.90;;;;;;4831569;29;20457;-82
2023/11/14 10:38:24;;;;;;;8.03;2.67;;;14.00;99.90;;;;;;4846560;29;20440;-79
2023/11/14 10:40:54;;;;;;;7.93;2.53;;;14.10;99.90;;;;;;4831153;29;20412;-81
2023/11/14 10:43:35;;;;;;;7.20;2.67;;;14.10;99.90;;;;;;4831437;29;20433;-79
2023/11/14 10:46:10;;;;;;;9.43;3.20;;;14.00;99.90;;;;;;4851290;29;20450;-80
2023/11/14 10:48:41;;;;;;;10.93;3.70;;;13.90;99.90;;;;;;4847195;29;20449;-80
2023/11/14 10:51:08;;;;;;;8.23;2.37;;;13.80;99.90;;;;;;4852968;29;20414;-82
2023/11/14 10:56:27;;;;;;;13.63;2.67;;;13.70;99.90;;;;;;4979284;23;20475;-82
2023/11/14 10:58:55;;;;;;;14.53;3.60;;;13.60;99.90;;;;;;4872096;29;20425;-81
2023/11/14 11:01:33;;;;;;;8.20;3.50;;;13.50;99.90;;;;;;4877873;29;20430;-82
2023/11/14 11:10:33;;;;;;;9.30;2.70;;;13.20;99.90;;;;;;4497701;27;20572;-81
2023/11/14 11:13:04;;;;;;;16.90;2.77;;;13.20;99.90;;;;;;4908560;29;20447;-82
2023/11/14 11:16:20;;;;;;;9.10;2.03;;;13.20;99.90;;;;;;4864492;29;20444;-79
2023/11/14 11:19:37;;;;;;;10.93;3.20;;;13.20;99.90;;;;;;4882629;29;20425;-79
2023/11/14 11:22:06;;;;;;;9.20;2.90;;;13.30;99.90;;;;;;4852849;29;20430;-80
2023/11/14 11:24:59;;;;;;;5.50;2.50;;;13.30;99.90;;;;;;4868355;29;20450;-81
2023/11/14 11:27:29;;;;;;;7.13;2.60;;;13.40;99.90;;;;;;4840063;29;20426;-81
2023/11/14 11:30:00;;;;;;;11.40;3.00;;;13.50;99.90;;;;;;4852810;29;20414;-83
2023/11/14 11:32:35;;;;;;;8.00;3.43;;;13.60;99.90;;;;;;4885706;29;20463;-82
2023/11/14 11:35:40;;;;;;;7.50;2.30;;;13.70;99.90;;;;;;5017857;23;20479;-82
2023/11/14 11:44:22;;;;;;;9.30;3.50;;;13.60;99.90;;;;;;4237389;27;20492;-81
2023/11/14 11:46:52;;;;;;;8.33;2.30;;;13.50;99.90;;;;;;4856351;29;20405;-82
2023/11/14 11:49:27;;;;;;;12.23;3.10;;;13.40;99.90;;;;;;4857020;29;20433;-81
2023/11/14 11:52:11;;;;;;;7.30;3.10;;;13.30;99.90;;;;;;4887129;29;20424;-81
2023/11/14 11:54:37;;;;;;;6.03;1.80;;;13.20;99.90;;;;;;4850955;29;20464;-80
2023/11/14 11:57:04;;;;;;;8.77;2.90;;;13.10;99.90;;;;;;4850997;29;20449;-82
2023/11/14 12:00:06;;;;;;;8.30;2.20;;;13.10;99.90;;;;;;4901819;23;20477;-79
2023/11/14 12:02:36;;;;;;;8.73;2.50;;;13.00;99.90;;;;;;4830736;29;20431;-82
2023/11/14 12:05:07;;;;;;;8.07;2.40;;;12.70;99.90;;;;;;4815651;29;20471;-82
2023/11/14 12:07:35;;;;;;;8.33;2.67;;;12.40;99.90;;;;;;4814914;29;20416;-81
2023/11/14 12:10:36;;;;;;;8.70;2.30;;;12.20;99.90;;;;;;4816534;29;20442;-80
2023/11/14 12:13:02;;;;;;;8.30;2.47;;;12.20;99.90;;;;;;4835122;29;20492;-83
2023/11/14 12:15:32;;;;;;;6.20;2.13;;;12.10;99.90;;;;;;4815757;29;20507;-82
2023/11/14 12:20:34;;;;;;;9.83;2.73;;;12.00;99.90;;;;;;4960141;23;20478;-79
2023/11/14 12:23:03;;;;;;;7.50;2.43;;;11.90;99.90;;;;;;4855180;29;20414;-84
2023/11/14 12:25:31;;;;;;;6.40;2.20;;;11.90;99.90;;;;;;4855275;29;20437;-81
2023/11/14 12:28:00;;;;;;;11.40;2.97;;;11.90;99.90;;;;;;4869105;29;20417;-82
2023/11/14 12:30:28;;;;;;;6.57;3.33;;;12.00;99.90;;;;;;4888369;29;20444;-78
2023/11/14 12:33:16;;;;;;;4.90;2.70;;;12.00;99.90;;;;;;4888829;29;20482;-81
2023/11/14 12:35:44;;;;;;;3.73;1.87;;;11.90;99.90;;;;;;4884391;29;20437;-84
2023/11/14 12:38:12;;;;;;;5.03;2.00;;;12.10;99.90;;;;;;4869911;29;20420;-80
2023/11/14 12:40:38;;;;;;;9.83;2.87;;;12.00;99.90;;;;;;4869000;29;20410;-81
2023/11/14 12:43:06;;;;;;;5.17;2.40;;;12.00;99.90;;;;;;4875713;29;20416;-79
2023/11/14 12:45:49;;;;;;;6.10;2.40;;;11.90;99.90;;;;;;4887844;29;20479;-84
2023/11/14 12:48:20;;;;;;;4.47;1.83;;;11.80;99.90;;;;;;4888462;29;20469;-82
2023/11/14 12:51:03;;;;;;;6.87;2.83;;;11.80;99.90;;;;;;4864042;29;20440;-81
2023/11/14 12:59:16;;;;;;;3.90;1.53;;;11.70;99.90;;;;;;4289080;23;20516;-83
2023/11/14 13:01:48;;;;;;;4.27;2.40;;;11.70;99.90;;;;;;5252958;23;20473;-82
2023/11/14 13:04:17;;;;;;;6.23;3.17;;;11.70;99.90;;;;;;4845354;29;20432;-82
2023/11/14 13:06:47;;;;;;;4.00;1.80;;;11.70;99.90;;;;;;4835944;29;20448;-80
2023/11/14 13:09:24;;;;;;;4.80;2.47;;;11.70;99.90;;;;;;4852030;29;20424;-81
2023/11/14 13:12:11;;;;;;;5.30;2.47;;;11.80;99.90;;;;;;4878017;29;20451;-81
2023/11/14 13:17:30;;;;;;;4.83;2.37;;;11.70;99.90;;;;;;5012064;23;20479;-81
2023/11/14 13:20:11;;;;;;;6.20;1.63;;;11.70;99.90;;;;;;4840410;29;20433;-81
2023/11/14 13:23:04;;;;;;;7.30;3.23;;;11.70;99.90;;;;;;4855894;29;20468;-82
2023/11/14 13:28:46;;;;;;;4.93;2.80;;;11.70;99.90;;;;;;5177443;23;20503;-82
2023/11/14 13:31:34;;;;;;;2.80;2.20;;;11.70;99.90;;;;;;4967595;23;20479;-82
2023/11/14 13:34:03;;;;;;;5.00;2.47;;;11.80;99.90;;;;;;4868385;29;20533;-83
2023/11/14 13:36:30;;;;;;;6.93;2.70;;;11.80;99.90;;;;;;4877287;29;20491;-80